sensor_id;sensor_type;location;lat;lon;timestamp;pressure;altitude;pressure_sealevel;temperature
14666;BMP280;7420;53.574;10.040;2022-09-20T00:02:18;101809.94;;;10.00
14666;BMP280;7420;53.574;10.040;2022-09-20T00:04:43;101817.78;;;9.93
14666;BMP280;7420;53.574;10.040;2022-09-20T00:07:08;101815.13;;;9.93
14666;BMP280;7420;53.574;10.040;2022-09-20T00:09:34;101814.28;;;9.93
14666;BMP280;7420;53.574;10.040;2022-09-20T00:11:59;101810.63;;;9.94
14666;BMP280;7420;53.574;10.040;2022-09-20T00:14:25;101816.84;;;9.86
14666;BMP280;7420;53.574;10.040;2022-09-20T00:16:51;101821.16;;;9.87
14666;BMP280;7420;53.574;10.040;2022-09-20T00:19:19;101828.28;;;9.87
14666;BMP280;7420;53.574;10.040;2022-09-20T00:21:45;101826.16;;;9.82
14666;BMP280;7420;53.574;10.040;2022-09-20T00:24:10;101825.22;;;9.75
14666;BMP280;7420;53.574;10.040;2022-09-20T00:26:35;101825.16;;;9.83
14666;BMP280;7420;53.574;10.040;2022-09-20T00:29:01;101824.50;;;9.81
14666;BMP280;7420;53.574;10.040;2022-09-20T00:31:26;101827.41;;;9.72
14666;BMP280;7420;53.574;10.040;2022-09-20T00:33:56;101830.75;;;9.66
14666;BMP280;7420;53.574;10.040;2022-09-20T00:36:40;101826.75;;;9.70
14666;BMP280;7420;53.574;10.040;2022-09-20T00:39:06;101828.88;;;9.74
14666;BMP280;7420;53.574;10.040;2022-09-20T00:41:32;101839.50;;;9.74
14666;BMP280;7420;53.574;10.040;2022-09-20T00:43:58;101827.41;;;9.72
14666;BMP280;7420;53.574;10.040;2022-09-20T00:46:34;101832.53;;;9.73
14666;BMP280;7420;53.574;10.040;2022-09-20T00:49:19;101832.22;;;9.68
14666;BMP280;7420;53.574;10.040;2022-09-20T00:51:53;101837.53;;;9.68
14666;BMP280;7420;53.574;10.040;2022-09-20T00:54:20;101836.72;;;9.68
14666;BMP280;7420;53.574;10.040;2022-09-20T00:56:47;101832.22;;;9.68
14666;BMP280;7420;53.574;10.040;2022-09-20T00:59:22;101836.22;;;9.64
14666;BMP280;7420;53.574;10.040;2022-09-20T01:01:56;101831.56;;;9.66
14666;BMP280;7420;53.574;10.040;2022-09-20T01:04:25;101838.72;;;9.66
14666;BMP280;7420;53.574;10.040;2022-09-20T01:06:53;101832.13;;;9.62
14666;BMP280;7420;53.574;10.040;2022-09-20T01:09:20;101838.97;;;9.56
14666;BMP280;7420;53.574;10.040;2022-09-20T01:11:46;101841.63;;;9.56
14666;BMP280;7420;53.574;10.040;2022-09-20T01:14:14;101836.22;;;9.64
14666;BMP280;7420;53.574;10.040;2022-09-20T01:16:41;101842.84;;;9.68
14666;BMP280;7420;53.574;10.040;2022-09-20T01:19:27;101836.56;;;9.61
14666;BMP280;7420;53.574;10.040;2022-09-20T01:21:53;101840.63;;;9.57
14666;BMP280;7420;53.574;10.040;2022-09-20T01:24:30;101843.13;;;9.51
14666;BMP280;7420;53.574;10.040;2022-09-20T01:32:22;101844.31;;;9.48
14666;BMP280;7420;53.574;10.040;2022-09-20T01:34:57;101843.66;;;9.46
14666;BMP280;7420;53.574;10.040;2022-09-20T01:37:36;101837.22;;;9.41
14666;BMP280;7420;53.574;10.040;2022-09-20T01:40:23;101856.97;;;9.38
14666;BMP280;7420;53.574;10.040;2022-09-20T01:43:07;101854.03;;;9.25
14666;BMP280;7420;53.574;10.040;2022-09-20T01:45:36;101849.06;;;9.22
14666;BMP280;7420;53.574;10.040;2022-09-20T01:56:06;101852.38;;;9.24
14666;BMP280;7420;53.574;10.040;2022-09-20T02:10:00;101861.88;;;9.19
14666;BMP280;7420;53.574;10.040;2022-09-20T02:12:46;101878.97;;;9.16
14666;BMP280;7420;53.574;10.040;2022-09-20T02:20:51;101883.94;;;9.12
14666;BMP280;7420;53.574;10.040;2022-09-20T02:26:04;101876.69;;;9.06
14666;BMP280;7420;53.574;10.040;2022-09-20T02:31:47;101885.19;;;8.93
14666;BMP280;7420;53.574;10.040;2022-09-20T02:36:54;101885.84;;;8.95
14666;BMP280;7420;53.574;10.040;2022-09-20T02:42:20;101881.69;;;8.93
14666;BMP280;7420;53.574;10.040;2022-09-20T02:45:03;101882.88;;;8.90
14666;BMP280;7420;53.574;10.040;2022-09-20T02:47:38;101889.34;;;8.80
14666;BMP280;7420;53.574;10.040;2022-09-20T02:52:57;101882.69;;;8.84
14666;BMP280;7420;53.574;10.040;2022-09-20T02:58:36;101897.66;;;8.77
14666;BMP280;7420;53.574;10.040;2022-09-20T03:01:16;101901.28;;;8.76
14666;BMP280;7420;53.574;10.040;2022-09-20T03:04:01;101903.44;;;8.72
14666;BMP280;7420;53.574;10.040;2022-09-20T03:06:59;101902.78;;;8.70
14666;BMP280;7420;53.574;10.040;2022-09-20T03:12:47;101917.69;;;8.63
14666;BMP280;7420;53.574;10.040;2022-09-20T03:18:18;101921.50;;;8.61
14666;BMP280;7420;53.574;10.040;2022-09-20T03:21:11;101916.72;;;8.56
14666;BMP280;7420;53.574;10.040;2022-09-20T03:26:46;101922.84;;;8.57
14666;BMP280;7420;53.574;10.040;2022-09-20T03:54:52;101923.00;;;8.31
14666;BMP280;7420;53.574;10.040;2022-09-20T04:02:37;101935.53;;;8.05
14666;BMP280;7420;53.574;10.040;2022-09-20T04:05:12;101932.28;;;8.19
14666;BMP280;7420;53.574;10.040;2022-09-20T04:11:02;101932.59;;;8.24
14666;BMP280;7420;53.574;10.040;2022-09-20T04:24:28;101959.91;;;8.17
14666;BMP280;7420;53.574;10.040;2022-09-20T04:27:17;101950.28;;;8.16
14666;BMP280;7420;53.574;10.040;2022-09-20T04:35:22;101953.44;;;8.11
14666;BMP280;7420;53.574;10.040;2022-09-20T04:38:11;101949.28;;;8.09
14666;BMP280;7420;53.574;10.040;2022-09-20T04:46:38;101968.00;;;8.07
14666;BMP280;7420;53.574;10.040;2022-09-20T04:49:33;101961.03;;;8.06
14666;BMP280;7420;53.574;10.040;2022-09-20T05:00:21;101975.25;;;8.05
14666;BMP280;7420;53.574;10.040;2022-09-20T05:05:59;101979.41;;;8.08
14666;BMP280;7420;53.574;10.040;2022-09-20T05:14:01;101988.53;;;8.13
14666;BMP280;7420;53.574;10.040;2022-09-20T05:19:39;101989.75;;;8.27
14666;BMP280;7420;53.574;10.040;2022-09-20T05:22:25;101994.22;;;8.18
14666;BMP280;7420;53.574;10.040;2022-09-20T05:25:09;101995.19;;;8.17
14666;BMP280;7420;53.574;10.040;2022-09-20T05:27:45;101999.00;;;8.23
14666;BMP280;7420;53.574;10.040;2022-09-20T05:35:48;102012.91;;;8.25
14666;BMP280;7420;53.574;10.040;2022-09-20T05:41:18;102007.94;;;8.22
14666;BMP280;7420;53.574;10.040;2022-09-20T05:43:56;102011.25;;;8.24
14666;BMP280;7420;53.574;10.040;2022-09-20T05:52:16;102025.66;;;8.29
14666;BMP280;7420;53.574;10.040;2022-09-20T05:55:11;102038.75;;;8.31
14666;BMP280;7420;53.574;10.040;2022-09-20T05:57:52;102035.78;;;8.26
14666;BMP280;7420;53.574;10.040;2022-09-20T06:00:23;102036.78;;;8.33
14666;BMP280;7420;53.574;10.040;2022-09-20T06:08:54;102044.06;;;8.47
14666;BMP280;7420;53.574;10.040;2022-09-20T06:11:59;102041.78;;;8.52
14666;BMP280;7420;53.574;10.040;2022-09-20T06:14:39;102043.63;;;8.59
14666;BMP280;7420;53.574;10.040;2022-09-20T06:22:58;102051.25;;;8.86
14666;BMP280;7420;53.574;10.040;2022-09-20T06:25:28;102048.09;;;8.91
14666;BMP280;7420;53.574;10.040;2022-09-20T06:28:00;102051.75;;;8.98
14666;BMP280;7420;53.574;10.040;2022-09-20T06:30:33;102037.16;;;9.02
14666;BMP280;7420;53.574;10.040;2022-09-20T06:33:12;102046.78;;;9.11
14666;BMP280;7420;53.574;10.040;2022-09-20T06:35:44;102041.28;;;9.12
14666;BMP280;7420;53.574;10.040;2022-09-20T06:41:10;102052.69;;;9.28
14666;BMP280;7420;53.574;10.040;2022-09-20T06:43:51;102054.88;;;9.33
14666;BMP280;7420;53.574;10.040;2022-09-20T06:46:17;102059.00;;;9.43
14666;BMP280;7420;53.574;10.040;2022-09-20T06:48:43;102048.69;;;9.56
14666;BMP280;7420;53.574;10.040;2022-09-20T06:51:08;102052.81;;;9.59
14666;BMP280;7420;53.574;10.040;2022-09-20T06:53:36;102061.56;;;9.67
14666;BMP280;7420;53.574;10.040;2022-09-20T06:56:02;102061.88;;;9.72
14666;BMP280;7420;53.574;10.040;2022-09-20T06:58:28;102058.22;;;9.73
14666;BMP280;7420;53.574;10.040;2022-09-20T07:00:53;102065.50;;;9.79
14666;BMP280;7420;53.574;10.040;2022-09-20T07:03:19;102064.97;;;9.92
14666;BMP280;7420;53.574;10.040;2022-09-20T07:05:44;102073.09;;;9.98
14666;BMP280;7420;53.574;10.040;2022-09-20T07:08:10;102075.88;;;10.13
14666;BMP280;7420;53.574;10.040;2022-09-20T07:10:36;102079.69;;;10.10
14666;BMP280;7420;53.574;10.040;2022-09-20T07:13:03;102082.63;;;10.23
14666;BMP280;7420;53.574;10.040;2022-09-20T07:15:31;102081.25;;;10.35
14666;BMP280;7420;53.574;10.040;2022-09-20T07:17:56;102085.25;;;10.31
14666;BMP280;7420;53.574;10.040;2022-09-20T07:20:22;102097.00;;;10.36
14666;BMP280;7420;53.574;10.040;2022-09-20T07:22:47;102095.47;;;10.42
14666;BMP280;7420;53.574;10.040;2022-09-20T07:25:13;102091.44;;;10.54
14666;BMP280;7420;53.574;10.040;2022-09-20T07:27:38;102088.25;;;10.58
14666;BMP280;7420;53.574;10.040;2022-09-20T07:30:05;102101.38;;;10.60
14666;BMP280;7420;53.574;10.040;2022-09-20T07:32:31;102093.16;;;10.69
14666;BMP280;7420;53.574;10.040;2022-09-20T07:34:56;102099.25;;;10.78
14666;BMP280;7420;53.574;10.040;2022-09-20T07:37:22;102102.34;;;10.89
14666;BMP280;7420;53.574;10.040;2022-09-20T07:39:47;102104.63;;;10.92
14666;BMP280;7420;53.574;10.040;2022-09-20T07:42:13;102098.31;;;10.93
14666;BMP280;7420;53.574;10.040;2022-09-20T07:44:38;102104.19;;;11.03
14666;BMP280;7420;53.574;10.040;2022-09-20T07:47:07;102113.72;;;11.20
14666;BMP280;7420;53.574;10.040;2022-09-20T07:49:34;102105.13;;;11.33
14666;BMP280;7420;53.574;10.040;2022-09-20T07:52:00;102106.97;;;11.32
14666;BMP280;7420;53.574;10.040;2022-09-20T07:54:25;102111.19;;;11.41
14666;BMP280;7420;53.574;10.040;2022-09-20T07:56:53;102118.94;;;11.50
14666;BMP280;7420;53.574;10.040;2022-09-20T07:59:19;102113.31;;;11.45
14666;BMP280;7420;53.574;10.040;2022-09-20T08:01:44;102114.38;;;11.59
14666;BMP280;7420;53.574;10.040;2022-09-20T08:04:10;102117.97;;;11.66
14666;BMP280;7420;53.574;10.040;2022-09-20T08:06:37;102122.81;;;11.62
14666;BMP280;7420;53.574;10.040;2022-09-20T08:09:03;102129.09;;;11.69
14666;BMP280;7420;53.574;10.040;2022-09-20T08:11:28;102119.34;;;11.76
14666;BMP280;7420;53.574;10.040;2022-09-20T08:13:55;102128.94;;;11.85
14666;BMP280;7420;53.574;10.040;2022-09-20T08:16:21;102126.44;;;11.84
14666;BMP280;7420;53.574;10.040;2022-09-20T08:18:52;102132.16;;;11.95
14666;BMP280;7420;53.574;10.040;2022-09-20T08:21:22;102128.28;;;12.12
14666;BMP280;7420;53.574;10.040;2022-09-20T08:23:48;102134.81;;;12.10
14666;BMP280;7420;53.574;10.040;2022-09-20T08:26:19;102131.66;;;12.06
14666;BMP280;7420;53.574;10.040;2022-09-20T08:28:45;102130.84;;;12.20
14666;BMP280;7420;53.574;10.040;2022-09-20T08:31:13;102131.53;;;12.43
14666;BMP280;7420;53.574;10.040;2022-09-20T08:33:40;102133.47;;;12.49
14666;BMP280;7420;53.574;10.040;2022-09-20T08:36:08;102140.97;;;12.60
14666;BMP280;7420;53.574;10.040;2022-09-20T08:38:34;102128.03;;;12.57
14666;BMP280;7420;53.574;10.040;2022-09-20T08:41:04;102128.66;;;12.59
14666;BMP280;7420;53.574;10.040;2022-09-20T08:43:36;102132.03;;;12.67
14666;BMP280;7420;53.574;10.040;2022-09-20T08:46:04;102129.03;;;12.56
14666;BMP280;7420;53.574;10.040;2022-09-20T08:48:33;102130.16;;;12.47
14666;BMP280;7420;53.574;10.040;2022-09-20T08:51:00;102134.69;;;12.67
14666;BMP280;7420;53.574;10.040;2022-09-20T08:53:26;102145.31;;;12.82
14666;BMP280;7420;53.574;10.040;2022-09-20T08:55:54;102141.56;;;12.91
14666;BMP280;7420;53.574;10.040;2022-09-20T08:58:22;102138.22;;;12.89
14666;BMP280;7420;53.574;10.040;2022-09-20T09:00:48;102140.75;;;12.90
14666;BMP280;7420;53.574;10.040;2022-09-20T09:03:15;102145.00;;;13.06
14666;BMP280;7420;53.574;10.040;2022-09-20T09:05:55;102148.56;;;13.13
14666;BMP280;7420;53.574;10.040;2022-09-20T09:08:33;102148.97;;;13.37
14666;BMP280;7420;53.574;10.040;2022-09-20T09:11:16;102152.41;;;13.52
14666;BMP280;7420;53.574;10.040;2022-09-20T09:14:02;102144.50;;;13.65
14666;BMP280;7420;53.574;10.040;2022-09-20T09:16:31;102146.63;;;13.49
14666;BMP280;7420;53.574;10.040;2022-09-20T09:19:41;102137.88;;;13.61
14666;BMP280;7420;53.574;10.040;2022-09-20T09:22:08;102146.22;;;13.79
14666;BMP280;7420;53.574;10.040;2022-09-20T09:24:34;102149.88;;;13.72
14666;BMP280;7420;53.574;10.040;2022-09-20T09:27:18;102154.88;;;13.81
14666;BMP280;7420;53.574;10.040;2022-09-20T09:29:51;102149.97;;;13.84
14666;BMP280;7420;53.574;10.040;2022-09-20T09:32:24;102157.78;;;14.13
14666;BMP280;7420;53.574;10.040;2022-09-20T09:34:52;102147.56;;;13.96
14666;BMP280;7420;53.574;10.040;2022-09-20T09:37:29;102154.19;;;13.73
14666;BMP280;7420;53.574;10.040;2022-09-20T09:40:14;102152.22;;;14.15
14666;BMP280;7420;53.574;10.040;2022-09-20T09:42:58;102152.38;;;14.47
14666;BMP280;7420;53.574;10.040;2022-09-20T09:47:59;102151.69;;;14.32
14666;BMP280;7420;53.574;10.040;2022-09-20T09:50:30;102155.22;;;14.05
14666;BMP280;7420;53.574;10.040;2022-09-20T09:53:00;102162.09;;;14.14
14666;BMP280;7420;53.574;10.040;2022-09-20T09:55:41;102151.75;;;14.05
14666;BMP280;7420;53.574;10.040;2022-09-20T09:58:33;102153.66;;;14.51
14666;BMP280;7420;53.574;10.040;2022-09-20T10:01:05;102146.69;;;14.63
14666;BMP280;7420;53.574;10.040;2022-09-20T10:06:42;102147.97;;;14.80
14666;BMP280;7420;53.574;10.040;2022-09-20T10:11:52;102150.09;;;15.17
14666;BMP280;7420;53.574;10.040;2022-09-20T10:17:24;102147.47;;;15.36
14666;BMP280;7420;53.574;10.040;2022-09-20T10:20:30;102139.13;;;14.93
14666;BMP280;7420;53.574;10.040;2022-09-20T10:23:01;102141.22;;;14.97
14666;BMP280;7420;53.574;10.040;2022-09-20T10:34:05;102149.69;;;15.20
14666;BMP280;7420;53.574;10.040;2022-09-20T10:36:51;102140.84;;;15.26
14666;BMP280;7420;53.574;10.040;2022-09-20T10:39:24;102143.34;;;15.53
14666;BMP280;7420;53.574;10.040;2022-09-20T10:47:27;102149.22;;;14.91
14666;BMP280;7420;53.574;10.040;2022-09-20T10:59:17;102143.91;;;15.03
14666;BMP280;7420;53.574;10.040;2022-09-20T11:07:20;102142.25;;;16.00
14666;BMP280;7420;53.574;10.040;2022-09-20T11:09:56;102144.28;;;16.11
14666;BMP280;7420;53.574;10.040;2022-09-20T11:12:28;102146.38;;;16.02
14666;BMP280;7420;53.574;10.040;2022-09-20T11:15:03;102143.47;;;16.16
14666;BMP280;7420;53.574;10.040;2022-09-20T11:17:34;102153.09;;;16.30
14666;BMP280;7420;53.574;10.040;2022-09-20T11:20:22;102160.41;;;15.13
14666;BMP280;7420;53.574;10.040;2022-09-20T11:22:55;102160.81;;;15.04
14666;BMP280;7420;53.574;10.040;2022-09-20T11:25:35;102161.91;;;15.48
14666;BMP280;7420;53.574;10.040;2022-09-20T11:28:12;102149.53;;;15.80
14666;BMP280;7420;53.574;10.040;2022-09-20T11:33:25;102145.72;;;16.19
14666;BMP280;7420;53.574;10.040;2022-09-20T11:35:55;102147.84;;;16.61
14666;BMP280;7420;53.574;10.040;2022-09-20T11:41:01;102145.94;;;16.68
14666;BMP280;7420;53.574;10.040;2022-09-20T11:43:30;102152.53;;;16.15
14666;BMP280;7420;53.574;10.040;2022-09-20T11:46:05;102155.28;;;15.70
14666;BMP280;7420;53.574;10.040;2022-09-20T11:48:43;102157.97;;;15.77
14666;BMP280;7420;53.574;10.040;2022-09-20T11:57:11;102154.59;;;16.70
14666;BMP280;7420;53.574;10.040;2022-09-20T11:59:41;102159.06;;;17.20
14666;BMP280;7420;53.574;10.040;2022-09-20T12:05:03;102144.50;;;18.01
14666;BMP280;7420;53.574;10.040;2022-09-20T12:07:39;102148.47;;;18.99
14666;BMP280;7420;53.574;10.040;2022-09-20T12:10:17;102150.53;;;19.27
14666;BMP280;7420;53.574;10.040;2022-09-20T12:12:46;102150.94;;;19.42
14666;BMP280;7420;53.574;10.040;2022-09-20T12:15:31;102156.41;;;18.94
14666;BMP280;7420;53.574;10.040;2022-09-20T12:28:56;102146.69;;;18.64
14666;BMP280;7420;53.574;10.040;2022-09-20T12:34:13;102152.19;;;20.42
14666;BMP280;7420;53.574;10.040;2022-09-20T12:39:26;102153.09;;;21.15
14666;BMP280;7420;53.574;10.040;2022-09-20T12:44:53;102146.78;;;20.42
14666;BMP280;7420;53.574;10.040;2022-09-20T13:05:44;102159.22;;;20.43
14666;BMP280;7420;53.574;10.040;2022-09-20T13:08:16;102164.66;;;20.83
14666;BMP280;7420;53.574;10.040;2022-09-20T13:10:59;102151.50;;;21.02
14666;BMP280;7420;53.574;10.040;2022-09-20T13:13:42;102150.34;;;22.78
14666;BMP280;7420;53.574;10.040;2022-09-20T13:17:18;102139.44;;;22.08
14666;BMP280;7420;53.574;10.040;2022-09-20T13:22:05;102151.25;;;23.72
14666;BMP280;7420;53.574;10.040;2022-09-20T13:24:37;102150.69;;;23.70
14666;BMP280;7420;53.574;10.040;2022-09-20T13:27:11;102149.19;;;22.95
14666;BMP280;7420;53.574;10.040;2022-09-20T13:29:42;102160.69;;;22.81
14666;BMP280;7420;53.574;10.040;2022-09-20T13:32:28;102153.31;;;23.03
14666;BMP280;7420;53.574;10.040;2022-09-20T13:35:20;102146.91;;;20.87
14666;BMP280;7420;53.574;10.040;2022-09-20T13:37:59;102153.09;;;19.74
14666;BMP280;7420;53.574;10.040;2022-09-20T13:40:40;102163.25;;;20.29
14666;BMP280;7420;53.574;10.040;2022-09-20T13:43:23;102155.09;;;22.44
14666;BMP280;7420;53.574;10.040;2022-09-20T13:46:15;102154.75;;;24.09
14666;BMP280;7420;53.574;10.040;2022-09-20T13:48:40;102149.63;;;24.84
14666;BMP280;7420;53.574;10.040;2022-09-20T13:51:23;102153.44;;;24.93
14666;BMP280;7420;53.574;10.040;2022-09-20T13:53:48;102146.41;;;25.07
14666;BMP280;7420;53.574;10.040;2022-09-20T13:56:20;102145.06;;;25.69
14666;BMP280;7420;53.574;10.040;2022-09-20T13:58:47;102152.97;;;25.41
14666;BMP280;7420;53.574;10.040;2022-09-20T14:01:30;102149.44;;;25.65
14666;BMP280;7420;53.574;10.040;2022-09-20T14:04:07;102148.72;;;26.48
14666;BMP280;7420;53.574;10.040;2022-09-20T14:06:37;102153.00;;;25.51
14666;BMP280;7420;53.574;10.040;2022-09-20T14:09:04;102147.72;;;26.09
14666;BMP280;7420;53.574;10.040;2022-09-20T14:11:31;102149.81;;;26.90
14666;BMP280;7420;53.574;10.040;2022-09-20T14:14:00;102155.25;;;29.84
14666;BMP280;7420;53.574;10.040;2022-09-20T14:16:36;102141.44;;;34.13
14666;BMP280;7420;53.574;10.040;2022-09-20T14:19:03;102144.91;;;33.13
14666;BMP280;7420;53.574;10.040;2022-09-20T14:21:32;102144.78;;;32.29
14666;BMP280;7420;53.574;10.040;2022-09-20T14:24:01;102143.38;;;34.04
14666;BMP280;7420;53.574;10.040;2022-09-20T14:26:31;102143.88;;;34.35
14666;BMP280;7420;53.574;10.040;2022-09-20T14:29:56;102146.66;;;33.01
14666;BMP280;7420;53.574;10.040;2022-09-20T14:34:45;102147.97;;;23.75
14666;BMP280;7420;53.574;10.040;2022-09-20T14:37:23;102139.19;;;21.56
14666;BMP280;7420;53.574;10.040;2022-09-20T14:39:53;102142.69;;;21.23
14666;BMP280;7420;53.574;10.040;2022-09-20T14:44:52;102150.84;;;30.29
14666;BMP280;7420;53.574;10.040;2022-09-20T14:47:38;102138.03;;;33.99
14666;BMP280;7420;53.574;10.040;2022-09-20T14:53:04;102140.03;;;35.18
14666;BMP280;7420;53.574;10.040;2022-09-20T14:55:31;102142.81;;;34.28
14666;BMP280;7420;53.574;10.040;2022-09-20T14:58:01;102145.31;;;33.66
14666;BMP280;7420;53.574;10.040;2022-09-20T15:00:27;102142.34;;;34.46
14666;BMP280;7420;53.574;10.040;2022-09-20T15:02:54;102132.78;;;34.23
14666;BMP280;7420;53.574;10.040;2022-09-20T15:05:24;102138.56;;;32.79
14666;BMP280;7420;53.574;10.040;2022-09-20T15:07:52;102136.44;;;33.98
14666;BMP280;7420;53.574;10.040;2022-09-20T15:10:18;102134.81;;;31.72
14666;BMP280;7420;53.574;10.040;2022-09-20T15:12:43;102144.41;;;33.11
14666;BMP280;7420;53.574;10.040;2022-09-20T15:15:13;102131.31;;;32.75
14666;BMP280;7420;53.574;10.040;2022-09-20T15:17:40;102140.56;;;31.62
14666;BMP280;7420;53.574;10.040;2022-09-20T15:20:12;102148.75;;;31.76
14666;BMP280;7420;53.574;10.040;2022-09-20T15:22:37;102155.13;;;29.76
14666;BMP280;7420;53.574;10.040;2022-09-20T15:25:03;102152.84;;;30.23
14666;BMP280;7420;53.574;10.040;2022-09-20T15:27:29;102144.03;;;30.13
14666;BMP280;7420;53.574;10.040;2022-09-20T15:29:54;102135.75;;;31.02
14666;BMP280;7420;53.574;10.040;2022-09-20T15:32:20;102145.94;;;31.23
14666;BMP280;7420;53.574;10.040;2022-09-20T15:34:45;102144.50;;;31.48
14666;BMP280;7420;53.574;10.040;2022-09-20T15:37:10;102144.41;;;30.47
14666;BMP280;7420;53.574;10.040;2022-09-20T15:39:36;102154.00;;;30.36
14666;BMP280;7420;53.574;10.040;2022-09-20T15:42:01;102157.09;;;29.89
14666;BMP280;7420;53.574;10.040;2022-09-20T15:44:27;102153.03;;;30.67
14666;BMP280;7420;53.574;10.040;2022-09-20T15:46:52;102152.72;;;29.88
14666;BMP280;7420;53.574;10.040;2022-09-20T15:49:18;102152.78;;;29.38
14666;BMP280;7420;53.574;10.040;2022-09-20T15:51:44;102157.19;;;29.84
14666;BMP280;7420;53.574;10.040;2022-09-20T15:54:11;102155.63;;;28.35
14666;BMP280;7420;53.574;10.040;2022-09-20T15:56:37;102154.88;;;28.72
14666;BMP280;7420;53.574;10.040;2022-09-20T15:59:08;102160.28;;;27.55
14666;BMP280;7420;53.574;10.040;2022-09-20T16:01:43;102169.31;;;23.26
14666;BMP280;7420;53.574;10.040;2022-09-20T16:04:13;102170.16;;;22.57
14666;BMP280;7420;53.574;10.040;2022-09-20T16:06:40;102166.06;;;25.29
14666;BMP280;7420;53.574;10.040;2022-09-20T16:09:07;102163.28;;;25.78
14666;BMP280;7420;53.574;10.040;2022-09-20T16:11:33;102157.34;;;25.57
14666;BMP280;7420;53.574;10.040;2022-09-20T16:13:59;102167.16;;;25.28
14666;BMP280;7420;53.574;10.040;2022-09-20T16:16:26;102171.34;;;23.76
14666;BMP280;7420;53.574;10.040;2022-09-20T16:18:52;102174.25;;;22.81
14666;BMP280;7420;53.574;10.040;2022-09-20T16:21:37;102174.13;;;22.49
14666;BMP280;7420;53.574;10.040;2022-09-20T16:24:04;102175.09;;;21.84
14666;BMP280;7420;53.574;10.040;2022-09-20T16:26:30;102175.34;;;21.05
14666;BMP280;7420;53.574;10.040;2022-09-20T16:28:56;102182.16;;;21.08
14666;BMP280;7420;53.574;10.040;2022-09-20T16:33:54;102188.03;;;19.92
14666;BMP280;7420;53.574;10.040;2022-09-20T16:36:20;102180.72;;;19.58
14666;BMP280;7420;53.574;10.040;2022-09-20T16:38:48;102193.31;;;19.23
14666;BMP280;7420;53.574;10.040;2022-09-20T16:41:13;102182.63;;;18.87
14666;BMP280;7420;53.574;10.040;2022-09-20T16:43:39;102191.25;;;18.60
14666;BMP280;7420;53.574;10.040;2022-09-20T16:46:05;102195.69;;;18.37
14666;BMP280;7420;53.574;10.040;2022-09-20T16:48:31;102193.69;;;18.08
14666;BMP280;7420;53.574;10.040;2022-09-20T16:50:57;102203.88;;;17.81
14666;BMP280;7420;53.574;10.040;2022-09-20T16:53:26;102199.38;;;17.51
14666;BMP280;7420;53.574;10.040;2022-09-20T16:55:52;102211.50;;;17.60
14666;BMP280;7420;53.574;10.040;2022-09-20T16:58:28;102207.66;;;17.49
14666;BMP280;7420;53.574;10.040;2022-09-20T17:01:05;102215.44;;;17.27
14666;BMP280;7420;53.574;10.040;2022-09-20T17:03:30;102216.47;;;17.26
14666;BMP280;7420;53.574;10.040;2022-09-20T17:06:00;102218.72;;;16.98
14666;BMP280;7420;53.574;10.040;2022-09-20T17:08:26;102216.31;;;16.83
14666;BMP280;7420;53.574;10.040;2022-09-20T17:10:51;102223.56;;;16.76
14666;BMP280;7420;53.574;10.040;2022-09-20T17:13:19;102236.19;;;16.76
14666;BMP280;7420;53.574;10.040;2022-09-20T17:15:44;102235.59;;;16.61
14666;BMP280;7420;53.574;10.040;2022-09-20T17:18:09;102234.03;;;16.47
14666;BMP280;7420;53.574;10.040;2022-09-20T17:20:34;102239.56;;;16.52
14666;BMP280;7420;53.574;10.040;2022-09-20T17:23:00;102230.31;;;16.35
14666;BMP280;7420;53.574;10.040;2022-09-20T17:25:26;102242.91;;;16.28
14666;BMP280;7420;53.574;10.040;2022-09-20T17:27:51;102244.56;;;16.10
14666;BMP280;7420;53.574;10.040;2022-09-20T17:30:16;102240.03;;;15.91
14666;BMP280;7420;53.574;10.040;2022-09-20T17:32:42;102243.56;;;15.85
14666;BMP280;7420;53.574;10.040;2022-09-20T17:35:14;102250.16;;;15.82
14666;BMP280;7420;53.574;10.040;2022-09-20T17:37:40;102257.38;;;15.69
14666;BMP280;7420;53.574;10.040;2022-09-20T17:40:06;102268.06;;;15.43
14666;BMP280;7420;53.574;10.040;2022-09-20T17:42:31;102259.00;;;15.50
14666;BMP280;7420;53.574;10.040;2022-09-20T17:44:57;102267.66;;;15.46
14666;BMP280;7420;53.574;10.040;2022-09-20T17:47:25;102277.47;;;15.26
14666;BMP280;7420;53.574;10.040;2022-09-20T17:49:50;102279.91;;;15.14
14666;BMP280;7420;53.574;10.040;2022-09-20T17:52:16;102279.91;;;15.08
14666;BMP280;7420;53.574;10.040;2022-09-20T17:54:42;102280.69;;;15.02
14666;BMP280;7420;53.574;10.040;2022-09-20T17:57:07;102285.59;;;14.92
14666;BMP280;7420;53.574;10.040;2022-09-20T17:59:32;102287.00;;;14.88
14666;BMP280;7420;53.574;10.040;2022-09-20T18:01:58;102289.63;;;14.75
14666;BMP280;7420;53.574;10.040;2022-09-20T18:04:23;102292.03;;;14.64
14666;BMP280;7420;53.574;10.040;2022-09-20T18:06:51;102309.34;;;14.68
14666;BMP280;7420;53.574;10.040;2022-09-20T18:09:21;102308.84;;;14.51
14666;BMP280;7420;53.574;10.040;2022-09-20T18:11:52;102302.69;;;14.51
14666;BMP280;7420;53.574;10.040;2022-09-20T18:14:20;102315.75;;;14.39
14666;BMP280;7420;53.574;10.040;2022-09-20T18:16:50;102311.00;;;14.35
14666;BMP280;7420;53.574;10.040;2022-09-20T18:19:16;102319.81;;;14.35
14666;BMP280;7420;53.574;10.040;2022-09-20T18:21:41;102319.78;;;14.29
14666;BMP280;7420;53.574;10.040;2022-09-20T18:24:08;102316.69;;;14.25
14666;BMP280;7420;53.574;10.040;2022-09-20T18:26:35;102321.03;;;14.26
14666;BMP280;7420;53.574;10.040;2022-09-20T18:34:03;102333.19;;;14.08
14666;BMP280;7420;53.574;10.040;2022-09-20T18:36:31;102331.44;;;14.00
14666;BMP280;7420;53.574;10.040;2022-09-20T18:38:57;102337.56;;;13.94
14666;BMP280;7420;53.574;10.040;2022-09-20T18:41:25;102339.75;;;13.84
14666;BMP280;7420;53.574;10.040;2022-09-20T18:43:52;102344.47;;;13.82
14666;BMP280;7420;53.574;10.040;2022-09-20T18:46:18;102343.56;;;13.76
14666;BMP280;7420;53.574;10.040;2022-09-20T18:48:48;102353.50;;;13.81
14666;BMP280;7420;53.574;10.040;2022-09-20T18:51:13;102356.28;;;13.74
14666;BMP280;7420;53.574;10.040;2022-09-20T18:53:40;102360.19;;;13.71
14666;BMP280;7420;53.574;10.040;2022-09-20T18:56:07;102362.31;;;13.61